Time;durP1;ratioP1;P1;durP2;ratioP2;P2;SDS_P1;SDS_P2;PMS_P1;PMS_P2;Temp;Humidity;BMP_temperature;BMP_pressure;BME280_temperature;BME280_humidity;BME280_pressure;Samples;Min_cycle;Max_cycle;Signal;HPM_P1;HPM_P2
2023/06/08 00:00:17;;;;;;;186.25;65.97;;;;;;;20.23;52.27;101801.22;5032818;28;20056;-70
2023/06/08 00:02:42;;;;;;;190.40;67.15;;;;;;;20.23;52.47;101802.09;5038100;28;20026;-70
2023/06/08 00:05:12;;;;;;;186.00;66.28;;;;;;;20.23;52.67;101801.22;5029430;28;20033;-71
2023/06/08 00:07:40;;;;;;;188.23;66.53;;;;;;;20.22;52.62;101802.13;5012304;28;20052;-71
2023/06/08 00:10:09;;;;;;;196.15;68.47;;;;;;;20.22;52.73;101794.19;5028806;28;20056;-72
2023/06/08 00:12:35;;;;;;;188.95;67.50;;;;;;;20.22;52.81;101788.88;5030783;28;20053;-71
2023/06/08 00:15:00;;;;;;;206.02;69.50;;;;;;;20.22;52.63;101795.06;5031112;23;20052;-69
2023/06/08 00:17:25;;;;;;;185.85;67.32;;;;;;;20.22;52.81;101797.72;5029946;28;20060;-69
2023/06/08 00:19:52;;;;;;;186.90;68.05;;;;;;;20.22;53.04;101799.47;5030846;28;20116;-70
2023/06/08 00:22:18;;;;;;;185.38;67.57;;;;;;;20.22;53.08;101791.53;5029362;28;20022;-70
2023/06/08 00:24:43;;;;;;;185.20;66.50;;;;;;;20.23;52.86;101793.25;4999037;28;20033;-70
2023/06/08 00:27:09;;;;;;;190.18;67.97;;;;;;;20.22;53.25;101788.88;5002519;28;20407;-71
2023/06/08 00:29:34;;;;;;;185.50;67.95;;;;;;;20.22;53.25;101789.75;5010110;28;20018;-68
2023/06/08 00:32:00;;;;;;;188.02;66.32;;;;;;;20.21;53.05;101781.88;4995444;28;20026;-68
2023/06/08 00:34:26;;;;;;;194.13;72.22;;;;;;;20.20;53.08;101780.97;5014352;28;20486;-70
2023/06/08 00:36:51;;;;;;;190.50;68.03;;;;;;;20.21;53.20;101792.47;4988752;28;20037;-70
2023/06/08 00:39:17;;;;;;;197.02;68.82;;;;;;;20.20;53.55;101786.28;5013203;28;20087;-69
2023/06/08 00:41:42;;;;;;;188.50;68.97;;;;;;;20.19;53.13;101786.34;5004885;28;20026;-69
2023/06/08 00:44:08;;;;;;;199.70;69.20;;;;;;;20.20;53.23;101793.38;5014252;28;20025;-69
2023/06/08 00:46:35;;;;;;;185.85;66.63;;;;;;;20.20;53.58;101796.03;5004937;28;20028;-69
2023/06/08 00:49:00;;;;;;;183.80;67.22;;;;;;;20.18;53.55;101787.25;5013401;28;20029;-70
2023/06/08 00:51:32;;;;;;;186.60;67.53;;;;;;;20.18;53.78;101788.16;5012118;28;20037;-70
2023/06/08 00:53:57;;;;;;;183.65;65.45;;;;;;;20.18;53.94;101787.25;5013265;28;20104;-70
2023/06/08 00:56:26;;;;;;;185.60;69.60;;;;;;;20.18;53.70;101789.91;5005594;28;20022;-70
2023/06/08 00:58:52;;;;;;;186.25;70.10;;;;;;;20.17;53.80;101790.88;5010899;28;20018;-71
2023/06/08 01:01:18;;;;;;;187.65;69.72;;;;;;;20.16;53.75;101784.69;5007315;28;20406;-72
2023/06/08 01:03:46;;;;;;;184.55;68.28;;;;;;;20.17;53.78;101790.88;5014322;28;20018;-70
2023/06/08 01:06:16;;;;;;;180.77;67.90;;;;;;;20.17;53.87;101785.56;5005483;28;20120;-70
2023/06/08 01:08:44;;;;;;;187.85;69.93;;;;;;;20.17;53.74;101782.91;5015139;28;20022;-70
2023/06/08 01:11:34;;;;;;;187.25;68.55;;;;;;;20.16;53.97;101791.78;5014356;28;20068;-70
2023/06/08 01:14:05;;;;;;;185.40;67.85;;;;;;;20.16;53.94;101786.47;5010498;28;20029;-69
2023/06/08 01:16:33;;;;;;;185.20;66.80;;;;;;;20.15;54.56;101784.75;4993822;28;20026;-72
2023/06/08 01:19:08;;;;;;;183.65;64.97;;;;;;;20.16;54.43;101783.81;5028816;28;20030;-70
2023/06/08 01:22:00;;;;;;;185.27;67.13;;;;;;;20.15;54.59;101787.38;5010751;28;20026;-70
2023/06/08 01:24:30;;;;;;;188.48;67.47;;;;;;;20.15;54.50;101784.75;5008997;28;20021;-69
2023/06/08 01:26:57;;;;;;;185.48;64.57;;;;;;;20.14;54.80;101781.22;5004921;28;20133;-70
2023/06/08 01:29:25;;;;;;;188.13;67.22;;;;;;;20.14;54.81;101780.34;5012711;28;20030;-71
2023/06/08 01:31:50;;;;;;;183.23;65.25;;;;;;;20.14;55.04;101781.22;5012184;28;20088;-70
2023/06/08 01:34:16;;;;;;;209.02;68.28;;;;;;;20.14;54.76;101777.69;5013390;28;20041;-69
2023/06/08 01:37:12;;;;;;;188.95;67.15;;;;;;;20.13;54.75;101781.31;5009123;28;20034;-70
2023/06/08 01:39:43;;;;;;;196.82;67.60;;;;;;;20.13;54.66;101781.31;5005873;28;20483;-70
2023/06/08 01:42:10;;;;;;;188.50;68.00;;;;;;;20.12;54.75;101782.22;5013088;28;20533;-70
2023/06/08 01:44:45;;;;;;;198.45;68.22;;;;;;;20.11;54.69;101778.72;4994398;28;20395;-70
2023/06/08 01:47:12;;;;;;;189.15;66.55;;;;;;;20.09;54.60;101773.44;5008667;28;20161;-70
2023/06/08 01:49:38;;;;;;;184.82;65.18;;;;;;;20.09;54.49;101778.75;5012451;28;20083;-70
2023/06/08 01:52:03;;;;;;;184.02;65.72;;;;;;;20.08;54.48;101777.03;5012654;28;20026;-69
2023/06/08 01:54:29;;;;;;;184.10;68.30;;;;;;;20.08;54.70;101782.34;5013148;28;20109;-70
2023/06/08 01:56:54;;;;;;;185.23;64.88;;;;;;;20.09;54.69;101778.75;5006657;28;20087;-70
2023/06/08 01:59:19;;;;;;;185.70;66.00;;;;;;;20.09;54.07;101767.28;5013443;28;20022;-72
2023/06/08 02:01:45;;;;;;;189.10;67.13;;;;;;;20.09;54.63;101773.44;5012194;28;20037;-70
2023/06/08 02:04:10;;;;;;;202.73;69.05;;;;;;;20.09;54.57;101773.44;5004325;28;20451;-70
2023/06/08 02:06:35;;;;;;;193.85;66.50;;;;;;;20.09;54.70;101768.13;5010820;28;20475;-72
2023/06/08 02:09:01;;;;;;;181.13;63.90;;;;;;;20.08;54.78;101771.75;5013179;28;20041;-70
2023/06/08 02:11:26;;;;;;;187.27;66.47;;;;;;;20.08;54.81;101771.75;5013613;28;20108;-69
2023/06/08 02:13:52;;;;;;;183.25;65.10;;;;;;;20.09;54.77;101772.59;5011704;28;20058;-72
2023/06/08 02:16:20;;;;;;;186.15;66.97;;;;;;;20.08;54.87;101765.56;5011160;28;20419;-70
2023/06/08 02:18:46;;;;;;;182.60;63.75;;;;;;;20.07;54.43;101769.16;5007125;28;20121;-70
2023/06/08 02:21:12;;;;;;;178.38;64.15;;;;;;;20.06;54.74;101768.25;5012043;28;20093;-70
2023/06/08 02:23:38;;;;;;;184.63;66.50;;;;;;;20.05;54.73;101766.53;4995407;28;20505;-70
2023/06/08 02:26:05;;;;;;;199.95;67.85;;;;;;;20.06;54.97;101773.56;5008212;28;20034;-69
2023/06/08 02:28:30;;;;;;;184.70;67.05;;;;;;;20.05;55.04;101771.84;4994671;28;20029;-71
2023/06/08 02:30:56;;;;;;;188.63;66.57;;;;;;;20.06;54.65;101768.25;5011552;28;20030;-70
2023/06/08 02:33:21;;;;;;;186.63;65.30;;;;;;;20.05;54.80;101769.19;5011605;28;20044;-70
2023/06/08 02:35:48;;;;;;;187.10;66.47;;;;;;;20.05;54.79;101773.63;5010219;28;20022;-71
2023/06/08 02:38:13;;;;;;;184.88;66.10;;;;;;;20.04;54.63;101780.75;5009741;28;20022;-69
2023/06/08 02:40:38;;;;;;;192.57;67.35;;;;;;;20.06;54.73;101775.38;5002847;28;20392;-71
2023/06/08 02:43:04;;;;;;;187.52;67.30;;;;;;;20.05;54.87;101777.13;5010329;28;20438;-70
2023/06/08 02:45:30;;;;;;;191.68;67.03;;;;;;;20.04;54.85;101775.44;5011529;28;20494;-70
2023/06/08 02:47:57;;;;;;;187.30;65.72;;;;;;;20.05;54.57;101777.13;5010155;28;20025;-70
2023/06/08 02:50:23;;;;;;;184.05;64.72;;;;;;;20.05;54.87;101777.13;5012715;28;20022;-70
2023/06/08 02:52:48;;;;;;;187.15;66.60;;;;;;;20.05;55.05;101779.78;5010150;28;20033;-69
2023/06/08 02:55:14;;;;;;;186.50;65.03;;;;;;;20.05;54.44;101787.75;5003149;28;20487;-69
2023/06/08 02:57:40;;;;;;;184.55;66.45;;;;;;;20.05;54.85;101782.44;5003649;28;20022;-71
2023/06/08 03:00:13;;;;;;;180.95;65.75;;;;;;;20.04;54.57;101783.38;5012279;28;20140;-70
2023/06/08 03:02:38;;;;;;;190.75;67.05;;;;;;;20.03;54.81;101771.03;5011125;28;20017;-70
2023/06/08 03:05:04;;;;;;;203.68;69.60;;;;;;;20.04;54.49;101777.19;5010406;28;20079;-71
2023/06/08 03:07:31;;;;;;;196.57;67.30;;;;;;;20.03;54.66;101768.41;5008388;28;20131;-71
2023/06/08 03:09:56;;;;;;;186.18;66.28;;;;;;;20.04;54.87;101777.19;5009437;28;20030;-70
2023/06/08 03:12:22;;;;;;;183.70;67.72;;;;;;;20.02;54.69;101764.00;5012221;28;20030;-71
2023/06/08 03:14:48;;;;;;;185.07;65.55;;;;;;;20.02;54.71;101766.66;5010804;28;20034;-70
2023/06/08 03:17:17;;;;;;;187.52;66.50;;;;;;;20.02;54.90;101766.66;5005622;28;20022;-71
2023/06/08 03:19:43;;;;;;;177.98;64.28;;;;;;;20.04;54.98;101771.91;5011887;28;20029;-69
2023/06/08 03:22:08;;;;;;;185.13;66.88;;;;;;;20.02;54.91;101761.34;5002602;28;20026;-70
2023/06/08 03:24:34;;;;;;;184.25;66.78;;;;;;;20.04;54.98;101769.25;5009466;28;20030;-70
2023/06/08 03:27:00;;;;;;;191.50;68.50;;;;;;;20.04;54.79;101770.13;5010500;28;20033;-70
2023/06/08 03:29:26;;;;;;;183.00;66.82;;;;;;;20.04;55.03;101767.47;5011132;28;20072;-70
2023/06/08 03:31:52;;;;;;;199.90;70.03;;;;;;;20.02;54.88;101766.66;5010090;28;20041;-71
2023/06/08 03:34:17;;;;;;;199.90;69.22;;;;;;;20.02;54.94;101764.00;5010287;28;20029;-70
2023/06/08 03:36:44;;;;;;;195.35;68.57;;;;;;;20.04;55.14;101769.25;5024382;28;20041;-70
2023/06/08 03:39:09;;;;;;;186.93;68.13;;;;;;;20.04;55.19;101764.81;5005041;28;20029;-70
2023/06/08 03:41:35;;;;;;;183.73;68.82;;;;;;;20.04;55.53;101764.81;5011402;28;20026;-72
2023/06/08 03:44:01;;;;;;;186.30;66.03;;;;;;;20.05;55.17;101763.03;5008969;28;20406;-72
2023/06/08 03:46:26;;;;;;;183.27;66.75;;;;;;;20.04;55.06;101764.81;4990296;28;20433;-74
2023/06/08 03:48:51;;;;;;;184.23;66.53;;;;;;;20.05;55.00;101761.22;5009289;28;20113;-70
2023/06/08 03:51:20;;;;;;;184.95;67.07;;;;;;;20.05;55.56;101761.22;5010227;28;20022;-70
2023/06/08 03:53:46;;;;;;;198.38;69.00;;;;;;;20.05;55.26;101755.91;5006744;28;20022;-70
2023/06/08 03:56:11;;;;;;;184.30;66.20;;;;;;;20.06;55.41;101764.75;5009769;28;20030;-69
2023/06/08 03:58:36;;;;;;;190.85;68.03;;;;;;;20.06;55.28;101765.63;5006773;28;20116;-71
2023/06/08 04:01:02;;;;;;;187.15;68.45;;;;;;;20.06;55.67;101762.09;5007829;28;20018;-70
2023/06/08 04:03:27;;;;;;;194.90;67.72;;;;;;;20.07;55.41;101769.16;5004517;28;20541;-70
2023/06/08 04:05:53;;;;;;;188.43;67.53;;;;;;;20.06;55.46;101770.91;5002043;28;20402;-70
2023/06/08 04:08:18;;;;;;;186.95;67.50;;;;;;;20.08;55.40;101773.50;5007317;28;20033;-69
2023/06/08 04:10:44;;;;;;;186.82;67.93;;;;;;;20.07;55.47;101766.50;5014255;28;20041;-70
2023/06/08 04:13:09;;;;;;;187.25;67.65;;;;;;;20.07;55.40;101764.69;5005541;28;20498;-70
2023/06/08 04:15:35;;;;;;;189.52;67.45;;;;;;;20.08;55.82;101766.44;5006496;28;20026;-73
2023/06/08 04:18:02;;;;;;;203.80;70.72;;;;;;;20.08;55.30;101769.09;4992823;28;20034;-70
2023/06/08 04:20:28;;;;;;;189.80;68.28;;;;;;;20.09;55.55;101757.53;5012778;28;20030;-69
2023/06/08 04:22:53;;;;;;;193.25;66.93;;;;;;;20.08;55.29;101761.13;5010704;28;20030;-70
2023/06/08 04:25:19;;;;;;;191.27;68.57;;;;;;;20.07;55.25;101759.41;5003303;28;20068;-71
2023/06/08 04:27:46;;;;;;;186.45;66.35;;;;;;;20.08;54.85;101765.56;5009896;28;20033;-69
2023/06/08 04:30:11;;;;;;;223.40;72.93;;;;;;;20.10;55.15;101761.06;5007912;28;20113;-70
2023/06/08 04:32:37;;;;;;;187.13;67.93;;;;;;;20.09;55.57;101756.69;4994740;28;20104;-69
2023/06/08 04:35:03;;;;;;;188.80;67.85;;;;;;;20.10;55.47;101759.25;5013650;28;20022;-70
2023/06/08 04:37:28;;;;;;;181.43;67.07;;;;;;;20.10;55.01;101761.91;5005882;28;20021;-69
2023/06/08 04:39:56;;;;;;;190.02;68.07;;;;;;;20.12;55.22;101764.50;5013306;28;20080;-70
2023/06/08 04:42:23;;;;;;;182.98;66.80;;;;;;;20.12;54.58;101767.16;4989708;28;20030;-69
2023/06/08 04:44:50;;;;;;;191.32;69.88;;;;;;;20.12;55.23;101766.31;5012457;28;20060;-69
2023/06/08 04:47:16;;;;;;;185.10;68.13;;;;;;;20.13;54.88;101768.03;5028316;28;20090;-69
2023/06/08 04:49:42;;;;;;;192.02;68.90;;;;;;;20.14;54.83;101767.09;5021776;28;20069;-74
2023/06/08 04:52:13;;;;;;;200.98;72.65;;;;;;;20.13;54.59;101760.94;5007771;28;20463;-70
2023/06/08 04:54:38;;;;;;;200.18;70.13;;;;;;;20.14;55.12;101759.13;5009204;28;20530;-69
2023/06/08 04:57:04;;;;;;;189.85;70.35;;;;;;;20.14;54.98;101745.88;5000530;28;20033;-70
2023/06/08 04:59:29;;;;;;;193.55;70.55;;;;;;;20.16;54.70;101746.69;5010511;28;20038;-70
2023/06/08 05:01:55;;;;;;;191.15;67.93;;;;;;;20.15;54.89;101751.16;4994370;28;20066;-70
2023/06/08 05:04:21;;;;;;;207.07;70.70;;;;;;;20.17;54.62;101751.09;4993170;28;20512;-72
2023/06/08 05:06:46;;;;;;;199.32;71.10;;;;;;;20.17;54.77;101754.59;5011347;28;20018;-70
2023/06/08 05:09:15;;;;;;;193.43;69.43;;;;;;;20.17;54.69;101753.72;5011236;28;20172;-70
2023/06/08 05:11:40;;;;;;;192.13;69.45;;;;;;;20.19;54.48;101767.78;5003485;28;20026;-70
2023/06/08 05:14:10;;;;;;;196.52;70.20;;;;;;;20.19;54.32;101754.53;5010834;28;20087;-71
2023/06/08 05:16:35;;;;;;;192.68;69.88;;;;;;;20.20;54.57;101753.59;4987412;28;20479;-71
2023/06/08 05:19:01;;;;;;;200.48;69.25;;;;;;;20.20;54.50;101753.59;5009691;28;20042;-70
2023/06/08 05:21:27;;;;;;;192.75;68.95;;;;;;;20.22;54.39;101754.38;5011024;28;20341;-73
2023/06/08 05:23:52;;;;;;;199.05;71.65;;;;;;;20.22;54.44;101754.38;5003948;28;20034;-70
2023/06/08 05:26:17;;;;;;;185.52;67.25;;;;;;;20.23;54.20;101751.69;5004264;28;20022;-72
2023/06/08 05:28:43;;;;;;;188.25;69.90;;;;;;;20.24;54.43;101745.44;5010227;28;20402;-70
2023/06/08 05:31:08;;;;;;;186.85;68.20;;;;;;;20.27;53.87;101739.16;5010868;28;20014;-70
2023/06/08 05:33:34;;;;;;;191.00;69.32;;;;;;;20.30;54.00;101739.06;5005915;28;20022;-70
2023/06/08 05:35:59;;;;;;;190.20;68.63;;;;;;;20.32;53.97;101741.66;5010707;28;20395;-71
2023/06/08 05:38:25;;;;;;;189.60;69.70;;;;;;;20.31;53.80;101748.72;5004608;28;20079;-70
2023/06/08 05:40:50;;;;;;;202.27;71.22;;;;;;;20.34;53.96;101747.72;5015081;28;20119;-70
2023/06/08 05:43:15;;;;;;;191.57;71.15;;;;;;;20.36;53.57;101746.75;5006801;28;20025;-72
2023/06/08 05:45:41;;;;;;;186.35;69.05;;;;;;;20.39;53.80;101749.25;5013347;28;20026;-69
2023/06/08 05:48:08;;;;;;;192.20;68.72;;;;;;;20.42;53.32;101742.97;5011807;28;20080;-69
2023/06/08 05:50:33;;;;;;;192.55;70.45;;;;;;;20.43;53.63;101750.88;5012374;28;20115;-69
2023/06/08 05:52:58;;;;;;;191.75;70.00;;;;;;;20.48;53.26;101752.47;5010843;28;20122;-72
2023/06/08 05:55:24;;;;;;;188.57;70.03;;;;;;;20.52;52.83;101741.69;5009526;28;20068;-72
2023/06/08 05:57:49;;;;;;;190.50;71.28;;;;;;;20.60;52.65;101741.34;5013396;28;20439;-70
2023/06/08 06:00:15;;;;;;;192.15;71.65;;;;;;;20.67;52.15;101737.53;5012333;28;20030;-70
2023/06/08 06:02:41;;;;;;;200.43;72.63;;;;;;;20.73;51.09;101739.94;5011852;28;20041;-70
2023/06/08 06:05:10;;;;;;;188.77;68.90;;;;;;;20.77;50.89;101736.22;5002301;28;20022;-70
2023/06/08 06:07:35;;;;;;;193.02;71.10;;;;;;;20.81;50.80;101744.06;5009670;28;20051;-70
2023/06/08 06:10:05;;;;;;;192.00;70.43;;;;;;;20.85;50.56;101740.38;5009883;28;20054;-70
2023/06/08 06:12:30;;;;;;;191.10;70.53;;;;;;;20.86;50.04;101737.63;5002040;28;20113;-71
2023/06/08 06:14:55;;;;;;;191.50;71.97;;;;;;;20.89;50.00;101748.13;5030205;22;20519;-66
2023/06/08 06:17:22;;;;;;;189.55;70.47;;;;;;;20.91;49.82;101753.34;5030697;28;20462;-66
2023/06/08 06:19:48;;;;;;;189.60;69.72;;;;;;;20.97;49.82;101755.75;5025189;28;20057;-66
2023/06/08 06:22:13;;;;;;;186.48;69.50;;;;;;;21.03;49.77;101747.50;5026036;28;20064;-66
2023/06/08 06:24:38;;;;;;;183.35;69.53;;;;;;;21.11;49.77;101756.00;5017935;28;20117;-65
2023/06/08 06:27:05;;;;;;;187.48;69.45;;;;;;;21.17;49.63;101756.69;5005346;28;20113;-66
2023/06/08 06:29:30;;;;;;;187.27;70.75;;;;;;;21.27;49.81;101768.63;5010347;28;20068;-66
2023/06/08 06:31:56;;;;;;;178.18;65.93;;;;;;;21.35;49.42;101769.16;5011648;28;20602;-65
2023/06/08 06:34:21;;;;;;;199.63;69.75;;;;;;;21.40;49.25;101764.47;5005903;28;20057;-65
2023/06/08 06:36:46;;;;;;;193.77;69.72;;;;;;;21.43;49.85;101764.34;5000775;28;20113;-66
2023/06/08 06:39:12;;;;;;;189.13;71.53;;;;;;;21.55;49.64;101756.78;5011406;28;20037;-66
2023/06/08 06:41:41;;;;;;;187.85;71.28;;;;;;;21.66;48.92;101754.47;5013337;28;20053;-66
2023/06/08 06:44:07;;;;;;;205.90;73.88;;;;;;;21.80;48.51;101761.84;5006272;28;20084;-66
2023/06/08 06:46:32;;;;;;;203.88;73.47;;;;;;;21.97;48.69;101753.06;5000430;28;20139;-67
2023/06/08 06:48:58;;;;;;;191.45;71.18;;;;;;;22.18;47.14;101760.94;5005472;28;20037;-66
2023/06/08 06:51:23;;;;;;;190.15;71.72;;;;;;;22.41;47.31;101758.03;5001417;28;20030;-66
2023/06/08 06:53:49;;;;;;;196.38;72.07;;;;;;;22.69;46.75;101754.00;5009426;28;20033;-66
2023/06/08 06:56:14;;;;;;;186.18;71.13;;;;;;;23.02;45.60;101752.38;5012728;28;20030;-66
2023/06/08 06:58:44;;;;;;;207.15;73.85;;;;;;;23.38;44.90;101749.59;5009520;28;20025;-67
2023/06/08 07:01:12;;;;;;;187.38;69.60;;;;;;;23.84;44.36;101748.88;5003554;28;20116;-66
2023/06/08 07:03:42;;;;;;;206.48;73.35;;;;;;;24.29;43.36;101751.72;5010545;28;20025;-68
2023/06/08 07:06:08;;;;;;;189.75;71.22;;;;;;;24.70;42.35;101750.28;5001672;28;20397;-67
2023/06/08 07:08:34;;;;;;;190.93;72.30;;;;;;;25.10;41.45;101750.53;5010396;28;20025;-66
2023/06/08 07:11:01;;;;;;;207.88;76.60;;;;;;;25.42;40.58;101748.59;5009162;28;20029;-65
2023/06/08 07:13:27;;;;;;;192.23;71.40;;;;;;;25.76;39.77;101745.59;5003595;28;20409;-67
2023/06/08 07:15:52;;;;;;;192.63;72.25;;;;;;;26.11;39.22;101750.50;5005933;28;20029;-68
2023/06/08 07:18:17;;;;;;;189.30;71.32;;;;;;;26.41;38.73;101747.63;5010122;28;20364;-68
2023/06/08 07:20:43;;;;;;;185.85;70.32;;;;;;;26.68;38.18;101756.56;5009450;28;20021;-67
2023/06/08 07:23:08;;;;;;;200.73;72.63;;;;;;;26.93;37.63;101745.94;4985345;28;20022;-67
2023/06/08 07:25:33;;;;;;;192.15;71.18;;;;;;;27.26;36.98;101746.34;5006933;28;20474;-68
2023/06/08 07:27:59;;;;;;;191.80;72.50;;;;;;;27.35;36.96;101745.72;5028131;28;20490;-67
2023/06/08 07:30:26;;;;;;;186.50;71.18;;;;;;;27.70;36.15;101744.16;5012297;28;20022;-67
2023/06/08 07:32:51;;;;;;;190.02;70.82;;;;;;;27.76;36.08;101735.66;5011900;28;20105;-68
2023/06/08 07:35:16;;;;;;;188.50;69.13;;;;;;;28.05;35.76;101738.94;5009687;28;20129;-67
2023/06/08 07:37:42;;;;;;;186.63;69.38;;;;;;;27.99;35.10;101752.75;5010999;28;20103;-68
2023/06/08 07:40:08;;;;;;;192.18;70.25;;;;;;;28.17;35.28;101746.06;5007878;28;20053;-68
2023/06/08 07:42:33;;;;;;;209.20;74.03;;;;;;;28.24;34.87;101746.47;5002599;28;20055;-69
2023/06/08 07:44:59;;;;;;;195.73;72.60;;;;;;;28.31;34.90;101752.25;5009437;28;20037;-67
2023/06/08 07:47:24;;;;;;;188.88;71.88;;;;;;;28.26;35.30;101755.25;5011489;28;20018;-67
2023/06/08 07:49:50;;;;;;;188.88;71.72;;;;;;;28.31;34.72;101747.72;5011992;28;20056;-67
2023/06/08 07:52:15;;;;;;;186.45;70.88;;;;;;;28.20;35.23;101754.88;5010786;28;20026;-68
2023/06/08 07:54:40;;;;;;;188.40;71.78;;;;;;;27.92;36.07;101744.31;5010286;28;20022;-67
2023/06/08 07:57:06;;;;;;;188.90;72.38;;;;;;;27.59;36.21;101744.94;5026993;28;20101;-68
2023/06/08 07:59:31;;;;;;;188.43;72.45;;;;;;;27.23;37.62;101743.88;5011354;28;20109;-68
2023/06/08 08:01:57;;;;;;;182.43;71.13;;;;;;;26.90;38.14;101746.16;5027176;28;20026;-68
2023/06/08 08:04:22;;;;;;;195.32;74.22;;;;;;;26.46;38.62;101739.28;5010180;28;20030;-68
2023/06/08 08:06:47;;;;;;;188.30;70.63;;;;;;;25.97;39.75;101735.31;5011718;28;20040;-68
2023/06/08 08:09:13;;;;;;;190.32;71.32;;;;;;;25.57;40.90;101735.22;5010547;28;20099;-72
2023/06/08 08:11:38;;;;;;;202.77;76.22;;;;;;;25.78;39.62;101739.19;5015606;28;20113;-72
2023/06/08 08:14:09;;;;;;;196.93;75.25;;;;;;;26.06;39.72;101736.56;5009802;28;20044;-71
2023/06/08 08:16:35;;;;;;;195.18;74.78;;;;;;;26.13;39.58;101738.72;5009827;28;20506;-72
2023/06/08 08:19:00;;;;;;;194.20;75.18;;;;;;;25.79;40.03;101732.88;5004431;28;20041;-72
2023/06/08 08:21:26;;;;;;;193.60;73.85;;;;;;;25.38;40.74;101735.50;5011171;28;20030;-72
2023/06/08 08:23:51;;;;;;;192.65;74.65;;;;;;;24.87;41.67;101736.78;5007034;28;20120;-72
2023/06/08 08:26:16;;;;;;;193.88;74.22;;;;;;;24.64;42.39;101733.66;5007397;28;20061;-72
2023/06/08 08:28:44;;;;;;;190.43;73.63;;;;;;;24.39;43.35;101738.69;5008500;28;20109;-72
2023/06/08 08:31:10;;;;;;;193.45;73.78;;;;;;;23.94;43.95;101731.44;5005271;28;20052;-71
2023/06/08 08:33:35;;;;;;;199.40;74.80;;;;;;;23.69;45.04;101729.25;5008017;28;20112;-71
2023/06/08 08:36:00;;;;;;;199.05;75.85;;;;;;;23.42;45.66;101727.16;5008668;28;20017;-72
2023/06/08 08:38:26;;;;;;;206.30;78.30;;;;;;;23.25;45.97;101722.72;5010857;28;20502;-71
2023/06/08 08:40:52;;;;;;;197.88;76.10;;;;;;;23.11;46.86;101725.25;5009335;28;20038;-73
2023/06/08 08:43:31;;;;;;;198.30;74.93;;;;;;;23.04;47.07;101714.03;5010174;28;20033;-71
2023/06/08 08:45:59;;;;;;;204.95;77.93;;;;;;;22.88;46.90;101727.28;4997329;28;20030;-71
2023/06/08 08:48:27;;;;;;;204.52;75.80;;;;;;;22.79;47.61;101723.28;4993597;28;20486;-71
2023/06/08 08:50:59;;;;;;;196.63;74.80;;;;;;;22.64;47.91;101717.91;4991142;28;20475;-70
2023/06/08 08:53:27;;;;;;;213.05;77.40;;;;;;;22.52;47.96;101722.06;5012592;28;20034;-71
2023/06/08 08:55:54;;;;;;;206.30;75.50;;;;;;;22.48;48.51;101731.13;4995739;28;20032;-71
2023/06/08 08:58:21;;;;;;;197.85;74.25;;;;;;;22.41;48.27;101722.59;5014390;28;20022;-70
2023/06/08 09:00:50;;;;;;;196.70;73.50;;;;;;;22.32;48.33;101718.56;5011047;28;20021;-70
2023/06/08 09:03:15;;;;;;;202.23;76.38;;;;;;;22.33;48.48;101722.94;5012195;28;20022;-69
2023/06/08 09:05:43;;;;;;;199.02;73.80;;;;;;;22.32;48.39;101721.22;4999257;28;20021;-70
2023/06/08 09:08:09;;;;;;;201.25;75.07;;;;;;;22.20;48.75;101724.50;5011839;28;20049;-70
2023/06/08 09:10:34;;;;;;;200.85;74.07;;;;;;;22.21;48.15;101716.44;5019903;28;20026;-73
2023/06/08 09:13:01;;;;;;;210.48;76.72;;;;;;;22.18;48.45;101718.38;4985891;28;20080;-70
2023/06/08 09:15:28;;;;;;;208.80;74.38;;;;;;;22.16;48.17;101720.25;5002821;28;20033;-69
2023/06/08 09:17:54;;;;;;;198.98;74.55;;;;;;;22.10;48.71;101714.28;5010770;28;20036;-72
2023/06/08 09:20:29;;;;;;;204.82;75.28;;;;;;;22.13;48.88;101721.25;5014010;28;20391;-72
2023/06/08 09:22:55;;;;;;;193.32;73.40;;;;;;;22.07;49.04;101714.44;5013880;28;20109;-71
2023/06/08 09:25:36;;;;;;;199.38;73.72;;;;;;;22.05;48.83;101718.13;5019839;28;20465;-69
2023/06/08 09:28:28;;;;;;;193.95;74.00;;;;;;;21.89;49.86;101717.97;4994101;28;20092;-67
2023/06/08 09:30:56;;;;;;;212.18;75.38;;;;;;;21.81;49.93;101714.84;5011554;28;20057;-69
2023/06/08 09:33:27;;;;;;;207.45;74.93;;;;;;;21.75;50.21;101708.00;4988750;28;20049;-69
2023/06/08 09:35:59;;;;;;;199.27;74.88;;;;;;;21.73;50.30;101707.22;4992617;28;20487;-71
2023/06/08 09:38:26;;;;;;;196.70;73.35;;;;;;;21.79;49.95;101704.28;5011982;28;20025;-70
2023/06/08 09:41:12;;;;;;;207.50;73.78;;;;;;;21.81;49.66;101707.69;5012841;28;20491;-69
2023/06/08 09:43:37;;;;;;;207.63;75.80;;;;;;;21.81;49.94;101707.69;5012812;28;20029;-69
2023/06/08 09:46:02;;;;;;;197.65;74.85;;;;;;;21.81;49.92;101705.03;4995724;28;20029;-69
2023/06/08 09:48:28;;;;;;;195.43;74.15;;;;;;;21.81;49.71;101709.50;5013123;28;20037;-69
2023/06/08 09:51:02;;;;;;;193.80;72.65;;;;;;;21.81;49.16;101698.88;5010352;28;20030;-68
2023/06/08 09:53:31;;;;;;;192.95;71.18;;;;;;;21.77;49.86;101706.13;5008837;28;20030;-70
2023/06/08 09:55:58;;;;;;;210.75;75.00;;;;;;;21.66;50.20;101701.31;4993660;28;20049;-70
2023/06/08 09:58:27;;;;;;;196.82;72.18;;;;;;;21.54;51.25;101696.56;5009336;28;20030;-71
2023/06/08 10:00:56;;;;;;;199.75;73.35;;;;;;;21.56;51.02;101700.03;5004529;28;20499;-70
2023/06/08 10:03:30;;;;;;;234.02;78.28;;;;;;;21.57;50.72;101686.66;5004052;28;20419;-70
2023/06/08 10:05:57;;;;;;;212.00;73.27;;;;;;;21.58;51.00;101692.84;5008664;28;20025;-70
2023/06/08 10:08:24;;;;;;;220.88;75.90;;;;;;;21.55;50.98;101690.34;5005076;28;20279;-71
2023/06/08 10:10:50;;;;;;;233.20;80.50;;;;;;;21.56;51.02;101694.72;4992124;28;20479;-71
2023/06/08 10:13:15;;;;;;;219.38;74.80;;;;;;;21.56;49.87;101695.56;5005640;28;20080;-71
2023/06/08 10:15:41;;;;;;;225.68;77.40;;;;;;;21.56;49.67;101689.41;5012847;28;20030;-72
2023/06/08 10:18:07;;;;;;;205.32;73.30;;;;;;;21.59;50.08;101689.25;5018698;28;20399;-71
2023/06/08 10:20:32;;;;;;;202.43;71.97;;;;;;;21.56;50.00;101684.09;5020525;28;20036;-72
2023/06/08 10:22:59;;;;;;;213.32;75.50;;;;;;;21.57;49.91;101681.34;5024719;28;20155;-70
2023/06/08 10:25:28;;;;;;;203.25;72.70;;;;;;;21.62;49.90;101678.47;5025556;28;20032;-69
2023/06/08 10:27:54;;;;;;;267.13;82.03;;;;;;;21.66;49.34;101677.38;5019109;28;20098;-70
2023/06/08 10:30:30;;;;;;;293.73;86.45;;;;;;;21.61;50.42;101680.28;5019031;28;20088;-68
2023/06/08 10:33:18;;;;;;;235.25;77.72;;;;;;;21.55;50.67;101682.34;5008444;28;20025;-66
2023/06/08 10:36:02;;;;;;;267.42;85.97;;;;;;;21.53;50.34;101673.56;5009250;28;20021;-66
2023/06/08 10:38:28;;;;;;;304.02;89.93;;;;;;;21.52;50.19;101663.88;5014022;28;20025;-65
2023/06/08 10:40:53;;;;;;;273.83;89.70;;;;;;;21.49;49.77;101667.53;5012691;28;20168;-67
2023/06/08 10:43:22;;;;;;;286.23;90.05;;;;;;;21.50;50.35;101668.38;5016565;28;20018;-66
2023/06/08 10:45:48;;;;;;;294.73;91.78;;;;;;;21.50;50.21;101673.69;4998638;28;20505;-66
2023/06/08 10:48:18;;;;;;;282.83;90.18;;;;;;;21.48;50.41;101668.47;5001408;28;20036;-66
2023/06/08 10:50:53;;;;;;;287.08;92.30;;;;;;;21.48;49.82;101667.59;5016882;28;20438;-67
2023/06/08 10:53:20;;;;;;;273.05;94.30;;;;;;;21.45;50.17;101669.47;5009615;28;20048;-67
2023/06/08 10:55:49;;;;;;;280.08;93.00;;;;;;;21.44;50.18;101670.38;5008338;28;20049;-66
2023/06/08 10:58:20;;;;;;;278.17;90.63;;;;;;;21.42;50.18;101661.63;5000007;28;20033;-66
2023/06/08 11:00:48;;;;;;;278.33;89.70;;;;;;;21.41;50.15;101659.91;5013451;28;20034;-66